Chahbahar, Iran
Current Conditions -  °F | °C
As of 8:00 AM on Sunday 26 Oct 2014 (Local Time) from OIZI Reporting Station
Clear Clear  
Wind Chill: 28°   Ceiling: Unl
Heat Index: 28°   Visibility: 6mi
Dew Point:   Wind: 5mph
Humidity: 25%   Direction: 20°NNE
Pressure: 30.03"   Gusts: NA
Location:  25.28°N, 60.62°E
Report Text: OIZI 260500Z 02004KT CAVOK 28/06 Q1017
Loading
Personal Weather Stations






























Interactive Weather Map
Tropical Storm Tracking
New forecast layout! Learn more

10-Day Weather Forecast

Advertisements
Track Severe Weather on mobile